Ajax, Canada
Current Conditions -  °F | °C
As of 3:00 AM on Sunday 26 Oct 2014 (Local Time) from CYKZ Reporting Station
Few Clouds Few Clouds  
Wind Chill: 44°   Ceiling: Unl
Heat Index: 48°   Visibility: 15mi
Dew Point: 37°   Wind: 9mph
Humidity: 66%   Direction: 280°W
Pressure: 29.61"   Gusts: NA
Location:  43.85°N, 79.02°W
Report Text: CYKZ 260700Z 28008KT 15SM FEW057 09/03 A2961 RMK SC2 SLP028
Loading
Personal Weather Stations






























Interactive Weather Map
Tropical Storm Tracking
New forecast layout! Learn more

10-Day Weather Forecast

Advertisements
Track Severe Weather on mobile